createdAt,value
2018-09-23T00:00:08.227Z,15.20
2018-09-23T00:03:12.687Z,15.20
2018-09-23T00:06:17.291Z,15.20
2018-09-23T00:09:22.151Z,15.20
2018-09-23T00:12:26.594Z,15.10
2018-09-23T00:15:31.089Z,15.10
2018-09-23T00:18:35.555Z,15.10
2018-09-23T00:21:40.058Z,14.90
2018-09-23T00:28:13.113Z,14.90
2018-09-23T00:31:17.599Z,14.80
2018-09-23T00:34:22.611Z,14.70
2018-09-23T00:37:27.055Z,14.60
2018-09-23T00:40:31.793Z,14.40
2018-09-23T00:43:36.538Z,14.20
2018-09-23T00:50:09.073Z,14.00
2018-09-23T00:53:13.533Z,13.90
2018-09-23T00:56:18.203Z,13.80
2018-09-23T00:59:22.676Z,13.60
2018-09-23T01:02:27.167Z,13.60
2018-09-23T01:05:31.687Z,13.50
2018-09-23T01:08:36.227Z,13.40
2018-09-23T01:11:40.891Z,13.20
2018-09-23T01:14:45.351Z,13.20
2018-09-23T01:17:49.814Z,13.00
2018-09-23T01:20:54.358Z,12.80
2018-09-23T01:23:58.857Z,12.60
2018-09-23T01:27:03.322Z,12.60
2018-09-23T01:30:07.855Z,12.60
2018-09-23T01:33:12.378Z,12.70
2018-09-23T01:36:16.844Z,12.70
2018-09-23T01:39:21.362Z,12.60
2018-09-23T01:42:25.825Z,12.50
2018-09-23T01:45:30.292Z,12.40
2018-09-23T01:48:34.802Z,12.40
2018-09-23T01:51:39.258Z,12.50
2018-09-23T01:54:43.770Z,12.60
2018-09-23T01:57:48.381Z,12.50
2018-09-23T02:00:52.888Z,12.40
2018-09-23T02:03:57.379Z,12.30
2018-09-23T02:07:01.874Z,12.40
2018-09-23T02:10:06.365Z,12.30
2018-09-23T02:13:10.835Z,12.30
2018-09-23T02:16:15.293Z,12.30
2018-09-23T02:19:19.765Z,12.20
2018-09-23T02:22:24.273Z,12.10
2018-09-23T02:25:28.812Z,12.10
2018-09-23T02:28:33.323Z,12.10
2018-09-23T02:31:37.799Z,12.20
2018-09-23T02:34:42.303Z,12.10
2018-09-23T02:37:46.826Z,12.00
2018-09-23T02:40:51.436Z,12.00
2018-09-23T02:43:55.961Z,12.00
2018-09-23T02:47:00.407Z,12.00
2018-09-23T02:50:04.960Z,12.10
2018-09-23T02:53:09.521Z,12.10
2018-09-23T02:56:14.039Z,12.20
2018-09-23T02:59:18.509Z,12.10
2018-09-23T03:02:23.010Z,12.10
2018-09-23T03:05:27.482Z,12.20
2018-09-23T03:08:31.966Z,12.20
2018-09-23T03:11:36.409Z,12.20
2018-09-23T03:14:40.900Z,12.30
2018-09-23T03:17:45.358Z,12.30
2018-09-23T03:20:49.823Z,12.30
2018-09-23T03:23:54.346Z,12.30
2018-09-23T03:26:58.803Z,12.30
2018-09-23T03:30:03.329Z,12.50
2018-09-23T03:33:07.863Z,12.30
2018-09-23T03:36:12.359Z,12.40
2018-09-23T03:39:16.838Z,12.50
2018-09-23T03:42:21.338Z,12.50
2018-09-23T03:45:25.820Z,12.50
2018-09-23T03:48:30.276Z,12.50
2018-09-23T03:51:34.812Z,12.40
2018-09-23T03:54:39.818Z,12.50
2018-09-23T03:57:44.318Z,12.60
2018-09-23T04:00:48.891Z,12.60
2018-09-23T04:03:53.431Z,12.60
2018-09-23T04:06:57.891Z,12.80
2018-09-23T04:10:02.450Z,12.90
2018-09-23T04:13:07.009Z,13.00
2018-09-23T04:16:11.717Z,13.00
2018-09-23T04:19:16.224Z,13.10
2018-09-23T04:22:20.702Z,13.10
2018-09-23T04:25:25.193Z,13.20
2018-09-23T04:28:29.676Z,13.30
2018-09-23T04:31:34.165Z,13.40
2018-09-23T04:34:38.665Z,13.50
2018-09-23T04:37:43.122Z,13.60
2018-09-23T04:40:47.718Z,13.60
2018-09-23T04:43:52.250Z,13.60
2018-09-23T04:46:56.741Z,13.70
2018-09-23T04:50:01.250Z,13.80
2018-09-23T04:53:05.743Z,13.90
2018-09-23T04:56:10.292Z,14.10
2018-09-23T04:59:14.843Z,14.20
2018-09-23T05:02:19.425Z,14.20
2018-09-23T05:05:23.980Z,14.30
2018-09-23T05:08:28.596Z,14.40
2018-09-23T05:11:33.135Z,14.50
2018-09-23T05:14:37.592Z,14.60
2018-09-23T05:17:42.166Z,14.70
2018-09-23T05:20:46.690Z,14.70
2018-09-23T05:23:51.159Z,14.80
2018-09-23T05:26:55.647Z,14.90
2018-09-23T05:30:00.179Z,15.00
2018-09-23T05:33:04.631Z,15.10
2018-09-23T05:36:09.211Z,15.00
2018-09-23T05:39:13.683Z,15.10
2018-09-23T05:42:18.179Z,15.10
2018-09-23T05:45:22.699Z,15.20
2018-09-23T05:48:27.172Z,15.30
2018-09-23T05:51:31.722Z,15.40
2018-09-23T05:54:36.171Z,15.30
2018-09-23T05:57:40.685Z,15.40
2018-09-23T06:00:48.829Z,15.50
2018-09-23T06:03:53.437Z,15.60
2018-09-23T06:06:57.947Z,15.70
2018-09-23T06:10:02.411Z,15.70
2018-09-23T06:13:07.438Z,15.80
2018-09-23T06:16:11.976Z,15.80
2018-09-23T06:19:16.440Z,15.90
2018-09-23T06:22:20.959Z,15.90
2018-09-23T06:25:25.407Z,16.10
2018-09-23T06:28:29.888Z,16.10
2018-09-23T06:31:34.419Z,16.20
2018-09-23T06:34:39.374Z,16.30
2018-09-23T06:37:43.844Z,16.40
2018-09-23T06:40:48.453Z,16.50
2018-09-23T06:43:52.940Z,16.60
2018-09-23T06:46:57.527Z,16.80
2018-09-23T06:50:01.979Z,16.80
2018-09-23T06:53:12.986Z,17.00
2018-09-23T06:56:17.482Z,17.10
2018-09-23T06:59:21.959Z,17.20
2018-09-23T07:02:26.458Z,17.40
2018-09-23T07:05:30.906Z,17.40
2018-09-23T07:08:35.384Z,17.50
2018-09-23T07:11:39.851Z,17.60
2018-09-23T07:14:44.326Z,17.80
2018-09-23T07:17:48.806Z,17.80
2018-09-23T07:20:53.333Z,17.90
2018-09-23T07:23:57.976Z,18.00
2018-09-23T07:27:02.382Z,18.10
2018-09-23T07:30:07.235Z,18.10
2018-09-23T07:33:11.718Z,18.20
2018-09-23T07:36:16.169Z,18.20
2018-09-23T07:39:20.641Z,18.40
2018-09-23T07:42:25.369Z,18.50
2018-09-23T07:45:29.858Z,18.50
2018-09-23T07:48:34.372Z,18.60
2018-09-23T07:51:39.150Z,18.70
2018-09-23T07:54:43.629Z,18.90
2018-09-23T07:57:48.083Z,19.00
2018-09-23T08:00:52.591Z,19.00
2018-09-23T08:03:57.072Z,19.10
2018-09-23T08:07:01.522Z,19.10
2018-09-23T08:10:06.170Z,19.10
2018-09-23T08:13:10.740Z,19.10
2018-09-23T08:16:15.145Z,19.20
2018-09-23T08:19:19.686Z,19.30
2018-09-23T08:22:24.079Z,19.40
2018-09-23T08:25:28.634Z,19.40
2018-09-23T08:28:33.088Z,19.40
2018-09-23T08:31:38.033Z,19.50
2018-09-23T08:34:42.570Z,19.70
2018-09-23T08:37:47.032Z,19.70
2018-09-23T08:40:51.516Z,19.70
2018-09-23T08:43:55.990Z,19.70
2018-09-23T08:47:00.458Z,19.70
2018-09-23T08:50:04.954Z,19.70
2018-09-23T08:53:09.468Z,19.70
2018-09-23T08:56:13.933Z,19.60
2018-09-23T08:59:18.369Z,19.70
2018-09-23T09:02:22.894Z,19.60
2018-09-23T09:05:27.371Z,19.50
2018-09-23T09:08:31.815Z,19.50
2018-09-23T09:11:36.706Z,19.50
2018-09-23T09:14:41.133Z,19.60
2018-09-23T09:17:45.582Z,19.70
2018-09-23T09:20:50.060Z,19.90
2018-09-23T09:23:54.534Z,20.00
2018-09-23T09:26:59.082Z,20.20
2018-09-23T09:30:04.215Z,20.60
2018-09-23T09:33:09.342Z,21.00
2018-09-23T09:36:13.955Z,21.20
2018-09-23T09:39:18.467Z,21.20
2018-09-23T09:42:23.122Z,21.10
2018-09-23T09:45:27.648Z,21.10
2018-09-23T09:48:32.147Z,21.00
2018-09-23T09:51:36.696Z,20.90
2018-09-23T09:54:41.172Z,20.90
2018-09-23T09:57:45.657Z,20.90
2018-09-23T10:00:50.286Z,21.00
2018-09-23T10:03:55.998Z,21.00
2018-09-23T10:07:00.461Z,21.10
2018-09-23T10:10:05.046Z,21.10
2018-09-23T10:13:09.648Z,21.10
2018-09-23T10:16:14.176Z,21.10
2018-09-23T10:19:18.806Z,21.10
2018-09-23T10:22:23.375Z,21.20
2018-09-23T10:25:27.960Z,21.40
2018-09-23T10:28:33.210Z,21.50
2018-09-23T10:31:37.940Z,21.80
2018-09-23T10:34:42.761Z,21.90
2018-09-23T10:37:47.410Z,22.00
2018-09-23T10:40:52.329Z,22.20
2018-09-23T10:43:56.793Z,22.20
2018-09-23T10:47:01.251Z,22.30
2018-09-23T10:50:06.041Z,22.30
2018-09-23T10:53:10.498Z,22.40
2018-09-23T10:56:15.057Z,22.40
2018-09-23T10:59:19.545Z,22.40
2018-09-23T11:02:24.005Z,22.60
2018-09-23T11:05:28.438Z,22.70
2018-09-23T11:08:32.911Z,23.00
2018-09-23T11:11:37.440Z,23.20
2018-09-23T11:14:41.911Z,23.40
2018-09-23T11:17:46.370Z,23.80
2018-09-23T11:20:50.820Z,24.10
2018-09-23T11:23:55.271Z,24.30
2018-09-23T11:26:59.721Z,24.50
2018-09-23T11:30:04.331Z,24.70
2018-09-23T11:33:08.852Z,24.90
2018-09-23T11:36:15.115Z,25.00
2018-09-23T11:39:19.650Z,25.10
2018-09-23T11:42:24.156Z,25.30
2018-09-23T11:45:28.607Z,25.30
2018-09-23T11:48:33.069Z,25.30
2018-09-23T11:51:37.493Z,25.40
2018-09-23T11:54:42.082Z,25.50
2018-09-23T11:57:46.598Z,25.50
2018-09-23T12:00:53.764Z,25.50
2018-09-23T12:04:00.342Z,25.50
2018-09-23T12:07:06.297Z,25.50
2018-09-23T12:10:11.794Z,25.40
2018-09-23T12:13:16.318Z,25.40
2018-09-23T12:16:20.798Z,25.20
2018-09-23T12:19:25.262Z,25.30
2018-09-23T12:22:29.708Z,25.50
2018-09-23T12:25:34.291Z,25.40
2018-09-23T12:28:38.738Z,25.40
2018-09-23T12:31:43.215Z,25.40
2018-09-23T12:34:47.684Z,25.30
2018-09-23T12:37:52.207Z,25.30
2018-09-23T12:40:56.778Z,25.30
2018-09-23T12:44:01.311Z,25.30
2018-09-23T12:47:06.145Z,25.20
2018-09-23T12:50:10.690Z,25.20
2018-09-23T12:53:15.207Z,25.20
2018-09-23T12:56:19.865Z,25.20
2018-09-23T12:59:24.473Z,25.40
2018-09-23T13:02:29.059Z,25.50
2018-09-23T13:05:33.746Z,25.60
2018-09-23T13:08:38.352Z,25.30
2018-09-23T13:11:42.935Z,25.20
2018-09-23T13:14:47.634Z,25.10
2018-09-23T13:17:52.283Z,24.90
2018-09-23T13:20:56.988Z,24.70
2018-09-23T13:24:01.628Z,24.60
2018-09-23T13:27:06.119Z,24.70
2018-09-23T13:30:10.668Z,24.60
2018-09-23T13:33:15.172Z,24.50
2018-09-23T13:36:19.660Z,24.50
2018-09-23T13:39:24.142Z,24.20
2018-09-23T13:42:28.690Z,24.10
2018-09-23T13:45:33.210Z,24.10
2018-09-23T13:48:37.761Z,24.10
2018-09-23T13:51:42.265Z,24.20
2018-09-23T13:54:46.797Z,24.10
2018-09-23T13:57:51.279Z,24.10
2018-09-23T14:00:55.799Z,24.00
2018-09-23T14:04:00.283Z,24.00
2018-09-23T14:07:04.803Z,23.90
2018-09-23T14:10:09.306Z,23.90
2018-09-23T14:13:13.755Z,24.00
2018-09-23T14:16:18.243Z,24.00
2018-09-23T14:19:22.720Z,24.00
2018-09-23T14:22:27.191Z,24.00
2018-09-23T14:25:31.673Z,24.10
2018-09-23T14:28:36.175Z,24.10
2018-09-23T14:31:40.779Z,24.20
2018-09-23T14:34:45.404Z,24.20
2018-09-23T14:37:49.922Z,24.30
2018-09-23T14:40:54.458Z,24.60
2018-09-23T14:43:58.966Z,24.60
2018-09-23T14:47:03.497Z,24.60
2018-09-23T14:50:08.943Z,24.60
2018-09-23T14:53:13.463Z,24.50
2018-09-23T14:56:17.970Z,24.60
2018-09-23T14:59:22.637Z,24.70
2018-09-23T15:02:27.596Z,24.80
2018-09-23T15:05:32.100Z,24.80
2018-09-23T15:08:36.592Z,24.80
2018-09-23T15:11:41.356Z,24.80
2018-09-23T15:14:45.849Z,24.80
2018-09-23T15:17:50.411Z,24.70
2018-09-23T15:20:54.988Z,24.60
2018-09-23T15:23:59.664Z,24.60
2018-09-23T15:27:04.202Z,24.50
2018-09-23T15:30:08.731Z,24.60
2018-09-23T15:33:13.649Z,24.60
2018-09-23T15:36:18.174Z,24.50
2018-09-23T15:39:22.700Z,24.40
2018-09-23T15:42:27.249Z,24.30
2018-09-23T15:45:31.735Z,24.10
2018-09-23T15:48:36.269Z,24.00
2018-09-23T15:51:40.922Z,23.90
2018-09-23T15:54:45.896Z,23.80
2018-09-23T15:57:50.458Z,23.70
2018-09-23T16:00:55.102Z,23.70
2018-09-23T16:03:59.621Z,23.60
2018-09-23T16:07:04.254Z,23.60
2018-09-23T16:10:08.748Z,23.50
2018-09-23T16:13:13.299Z,23.50
2018-09-23T16:16:17.802Z,23.50
2018-09-23T16:19:22.348Z,23.50
2018-09-23T16:22:26.993Z,23.50
2018-09-23T16:25:31.509Z,23.40
2018-09-23T16:28:36.058Z,23.20
2018-09-23T16:31:40.556Z,22.90
2018-09-23T16:34:45.044Z,22.60
2018-09-23T16:37:49.716Z,22.40
2018-09-23T16:40:54.330Z,22.30
2018-09-23T16:43:58.842Z,21.60
2018-09-23T16:47:03.308Z,20.50
2018-09-23T16:50:07.896Z,19.60
2018-09-23T16:53:12.553Z,19.00
2018-09-23T16:56:17.339Z,18.50
2018-09-23T16:59:21.874Z,18.20
2018-09-23T17:02:26.372Z,18.00
2018-09-23T17:05:30.830Z,17.90
2018-09-23T17:08:35.287Z,17.70
2018-09-23T17:11:39.758Z,17.70
2018-09-23T17:14:44.234Z,17.60
2018-09-23T17:17:48.668Z,17.50
2018-09-23T17:20:53.212Z,17.50
2018-09-23T17:23:57.700Z,17.40
2018-09-23T17:27:02.244Z,17.40
2018-09-23T17:30:07.405Z,17.30
2018-09-23T17:33:12.107Z,17.20
2018-09-23T17:36:16.898Z,17.00
2018-09-23T17:39:21.404Z,17.00
2018-09-23T17:42:25.955Z,17.10
2018-09-23T17:45:30.624Z,17.10
2018-09-23T17:48:35.120Z,17.00
2018-09-23T17:51:39.598Z,17.00
2018-09-23T17:54:44.194Z,17.00
2018-09-23T17:57:48.795Z,17.00
2018-09-23T18:00:53.477Z,17.00
2018-09-23T18:03:58.160Z,16.90
2018-09-23T18:07:02.687Z,16.90
2018-09-23T18:10:07.129Z,16.80
2018-09-23T18:13:11.655Z,16.70
2018-09-23T18:16:16.266Z,16.60
2018-09-23T18:19:20.830Z,16.60
2018-09-23T18:22:25.372Z,16.50
2018-09-23T18:25:29.858Z,16.50
2018-09-23T18:28:34.418Z,16.50
2018-09-23T18:31:39.259Z,16.30
2018-09-23T18:34:43.863Z,16.20
2018-09-23T18:37:48.374Z,16.10
2018-09-23T18:40:53.015Z,15.90
2018-09-23T18:43:57.500Z,15.70
2018-09-23T18:47:02.006Z,15.60
2018-09-23T18:50:06.619Z,15.30
2018-09-23T18:53:16.204Z,15.10
2018-09-23T18:56:20.693Z,14.70
2018-09-23T18:59:25.570Z,14.40
2018-09-23T19:02:30.214Z,14.40
2018-09-23T19:05:34.818Z,14.20
2018-09-23T19:08:41.256Z,14.10
2018-09-23T19:11:45.868Z,14.00
2018-09-23T19:14:50.380Z,14.00
2018-09-23T19:17:54.928Z,13.90
2018-09-23T19:20:59.747Z,13.80
2018-09-23T19:24:04.183Z,13.90
2018-09-23T19:27:10.349Z,13.80
2018-09-23T19:30:15.104Z,13.80
2018-09-23T19:33:19.682Z,13.80
2018-09-23T19:36:30.656Z,13.60
2018-09-23T19:39:35.173Z,13.60
2018-09-23T19:42:39.730Z,13.60
2018-09-23T19:45:44.328Z,13.60
2018-09-23T19:48:49.474Z,13.60
2018-09-23T19:51:54.096Z,13.50
2018-09-23T19:54:58.827Z,13.50
2018-09-23T19:58:03.352Z,13.60
2018-09-23T20:01:07.870Z,13.60
2018-09-23T20:04:12.430Z,13.70
2018-09-23T20:07:16.938Z,13.60
2018-09-23T20:10:21.530Z,13.60
2018-09-23T20:13:26.085Z,13.60
2018-09-23T20:16:30.602Z,13.60
2018-09-23T20:19:35.240Z,13.60
2018-09-23T20:22:39.719Z,13.60
2018-09-23T20:25:44.250Z,13.50
2018-09-23T20:28:48.806Z,13.50
2018-09-23T20:31:53.261Z,13.50
2018-09-23T20:34:57.763Z,13.50
2018-09-23T20:40:59.966Z,13.60
2018-09-23T20:44:04.689Z,13.60
2018-09-23T20:47:09.162Z,13.60
2018-09-23T20:50:13.663Z,13.60
2018-09-23T20:53:18.302Z,13.60
2018-09-23T20:56:22.775Z,13.60
2018-09-23T20:59:27.231Z,13.50
2018-09-23T21:02:31.741Z,13.50
2018-09-23T21:05:36.364Z,13.30
2018-09-23T21:08:40.890Z,13.30
2018-09-23T21:11:45.374Z,13.30
2018-09-23T21:14:49.910Z,13.30
2018-09-23T21:17:54.394Z,13.30
2018-09-23T21:20:58.910Z,13.20
2018-09-23T21:24:03.435Z,13.00
2018-09-23T21:27:07.922Z,12.90
2018-09-23T21:30:12.431Z,12.80
2018-09-23T21:33:16.928Z,12.90
2018-09-23T21:36:21.400Z,12.90
2018-09-23T21:39:25.871Z,12.90
2018-09-23T21:42:30.403Z,12.90
2018-09-23T21:45:34.903Z,12.80
2018-09-23T21:48:39.381Z,12.70
2018-09-23T21:51:43.949Z,12.70
2018-09-23T21:54:48.438Z,12.60
2018-09-23T21:57:52.916Z,12.50
2018-09-23T22:00:57.388Z,12.50
2018-09-23T22:04:02.180Z,12.50
2018-09-23T22:07:06.722Z,12.50
2018-09-23T22:10:11.224Z,12.40
2018-09-23T22:13:15.683Z,12.50
2018-09-23T22:16:20.200Z,12.50
2018-09-23T22:19:24.680Z,12.60
2018-09-23T22:22:29.203Z,12.60
2018-09-23T22:25:33.683Z,12.60
2018-09-23T22:28:38.183Z,12.60
2018-09-23T22:31:42.662Z,12.60
2018-09-23T22:34:47.132Z,12.60
2018-09-23T22:37:51.622Z,12.70
2018-09-23T22:40:56.142Z,12.60
2018-09-23T22:44:00.605Z,12.70
2018-09-23T22:47:05.094Z,12.60
2018-09-23T22:50:09.596Z,12.60
2018-09-23T22:53:14.092Z,12.60
2018-09-23T22:56:18.619Z,12.60
2018-09-23T22:59:23.095Z,12.60
2018-09-23T23:02:27.573Z,12.70
2018-09-23T23:05:32.040Z,12.60
2018-09-23T23:08:36.543Z,12.60
2018-09-23T23:11:41.030Z,12.50
2018-09-23T23:14:45.551Z,12.60
2018-09-23T23:17:50.026Z,12.50
2018-09-23T23:20:54.483Z,12.50
2018-09-23T23:23:58.995Z,12.40
2018-09-23T23:27:03.605Z,12.40
2018-09-23T23:30:08.131Z,12.40
2018-09-23T23:33:12.589Z,12.30
2018-09-23T23:36:17.049Z,12.10
2018-09-23T23:39:21.542Z,12.10
2018-09-23T23:42:26.028Z,12.00
2018-09-23T23:45:30.474Z,12.00
2018-09-23T23:48:36.031Z,12.00
2018-09-23T23:51:40.612Z,11.90
2018-09-23T23:54:45.151Z,11.90
2018-09-23T23:57:49.647Z,11.80
